sensor_id;sensor_type;location;lat;lon;timestamp;temperature;humidity
10472;DHT22;5283;48.876;8.962;2023-11-22T00:02:17;6.20;99.90
10472;DHT22;5283;48.876;8.962;2023-11-22T00:04:44;6.10;99.90
10472;DHT22;5283;48.876;8.962;2023-11-22T00:07:12;6.00;99.90
10472;DHT22;5283;48.876;8.962;2023-11-22T00:09:39;6.00;99.90
10472;DHT22;5283;48.876;8.962;2023-11-22T00:12:06;5.80;99.90
10472;DHT22;5283;48.876;8.962;2023-11-22T00:14:33;5.80;99.90
10472;DHT22;5283;48.876;8.962;2023-11-22T00:17:01;5.70;99.90
10472;DHT22;5283;48.876;8.962;2023-11-22T00:19:28;5.70;99.90
10472;DHT22;5283;48.876;8.962;2023-11-22T00:21:56;5.60;99.90
10472;DHT22;5283;48.876;8.962;2023-11-22T00:24:23;5.60;99.90
10472;DHT22;5283;48.876;8.962;2023-11-22T00:26:50;5.50;99.90
10472;DHT22;5283;48.876;8.962;2023-11-22T00:29:17;5.40;99.90
10472;DHT22;5283;48.876;8.962;2023-11-22T00:31:43;5.40;99.90
10472;DHT22;5283;48.876;8.962;2023-11-22T00:34:11;5.30;99.90
10472;DHT22;5283;48.876;8.962;2023-11-22T00:36:38;5.30;99.90
10472;DHT22;5283;48.876;8.962;2023-11-22T00:39:04;5.20;99.90
10472;DHT22;5283;48.876;8.962;2023-11-22T00:41:31;5.20;99.90
10472;DHT22;5283;48.876;8.962;2023-11-22T00:43:58;5.10;99.90
10472;DHT22;5283;48.876;8.962;2023-11-22T00:46:25;5.10;99.90
10472;DHT22;5283;48.876;8.962;2023-11-22T00:48:52;5.10;99.90
10472;DHT22;5283;48.876;8.962;2023-11-22T00:51:19;5.00;99.90
10472;DHT22;5283;48.876;8.962;2023-11-22T00:53:46;5.00;99.90
10472;DHT22;5283;48.876;8.962;2023-11-22T00:56:13;4.90;99.90
10472;DHT22;5283;48.876;8.962;2023-11-22T00:58:39;4.90;99.90
10472;DHT22;5283;48.876;8.962;2023-11-22T01:01:06;4.90;99.90
10472;DHT22;5283;48.876;8.962;2023-11-22T01:03:34;5.00;99.90
10472;DHT22;5283;48.876;8.962;2023-11-22T01:06:02;5.00;99.90
10472;DHT22;5283;48.876;8.962;2023-11-22T01:08:29;4.90;99.90
10472;DHT22;5283;48.876;8.962;2023-11-22T01:10:57;4.90;99.90
10472;DHT22;5283;48.876;8.962;2023-11-22T01:13:24;4.80;99.90
10472;DHT22;5283;48.876;8.962;2023-11-22T01:15:51;4.80;99.90
10472;DHT22;5283;48.876;8.962;2023-11-22T01:18:17;4.80;99.90
10472;DHT22;5283;48.876;8.962;2023-11-22T01:20:45;4.70;99.90
10472;DHT22;5283;48.876;8.962;2023-11-22T01:23:12;4.70;99.90
10472;DHT22;5283;48.876;8.962;2023-11-22T01:25:39;4.70;99.90
10472;DHT22;5283;48.876;8.962;2023-11-22T01:28:05;4.70;99.90
10472;DHT22;5283;48.876;8.962;2023-11-22T01:30:33;4.70;99.90
10472;DHT22;5283;48.876;8.962;2023-11-22T01:33:00;4.70;99.90
10472;DHT22;5283;48.876;8.962;2023-11-22T01:35:27;4.70;99.90
10472;DHT22;5283;48.876;8.962;2023-11-22T01:37:53;4.70;99.90
10472;DHT22;5283;48.876;8.962;2023-11-22T01:40:20;4.70;99.90
10472;DHT22;5283;48.876;8.962;2023-11-22T01:42:47;4.60;99.90
10472;DHT22;5283;48.876;8.962;2023-11-22T01:45:14;4.60;99.90
10472;DHT22;5283;48.876;8.962;2023-11-22T01:47:41;4.60;99.90
10472;DHT22;5283;48.876;8.962;2023-11-22T01:50:08;4.60;99.90
10472;DHT22;5283;48.876;8.962;2023-11-22T01:52:35;4.50;99.90
10472;DHT22;5283;48.876;8.962;2023-11-22T01:55:03;4.50;99.90
10472;DHT22;5283;48.876;8.962;2023-11-22T01:57:33;4.50;99.90
10472;DHT22;5283;48.876;8.962;2023-11-22T02:00:03;4.40;99.90
10472;DHT22;5283;48.876;8.962;2023-11-22T02:02:31;4.40;99.90
10472;DHT22;5283;48.876;8.962;2023-11-22T02:04:58;4.40;99.90
10472;DHT22;5283;48.876;8.962;2023-11-22T02:07:27;4.30;99.90
10472;DHT22;5283;48.876;8.962;2023-11-22T02:09:54;4.30;99.90
10472;DHT22;5283;48.876;8.962;2023-11-22T02:12:20;4.20;99.90
10472;DHT22;5283;48.876;8.962;2023-11-22T02:14:47;4.10;99.90
10472;DHT22;5283;48.876;8.962;2023-11-22T02:17:15;4.10;99.90
10472;DHT22;5283;48.876;8.962;2023-11-22T02:19:43;4.10;99.90
10472;DHT22;5283;48.876;8.962;2023-11-22T02:22:10;4.10;99.90
10472;DHT22;5283;48.876;8.962;2023-11-22T02:24:37;4.10;99.90
10472;DHT22;5283;48.876;8.962;2023-11-22T02:27:04;4.00;99.90
10472;DHT22;5283;48.876;8.962;2023-11-22T02:29:31;4.00;99.90
10472;DHT22;5283;48.876;8.962;2023-11-22T02:31:57;3.90;99.90
10472;DHT22;5283;48.876;8.962;2023-11-22T02:34:24;3.80;99.90
10472;DHT22;5283;48.876;8.962;2023-11-22T02:36:52;3.80;99.90
10472;DHT22;5283;48.876;8.962;2023-11-22T02:39:21;3.70;99.90
10472;DHT22;5283;48.876;8.962;2023-11-22T02:41:48;3.70;99.90
10472;DHT22;5283;48.876;8.962;2023-11-22T02:44:15;3.60;99.90
10472;DHT22;5283;48.876;8.962;2023-11-22T02:46:43;3.60;99.90
10472;DHT22;5283;48.876;8.962;2023-11-22T02:49:10;3.50;99.90
10472;DHT22;5283;48.876;8.962;2023-11-22T02:51:37;3.50;99.90
10472;DHT22;5283;48.876;8.962;2023-11-22T02:54:04;3.40;99.90
10472;DHT22;5283;48.876;8.962;2023-11-22T02:56:32;3.30;99.90
10472;DHT22;5283;48.876;8.962;2023-11-22T02:58:58;3.20;99.90
10472;DHT22;5283;48.876;8.962;2023-11-22T03:01:25;3.20;99.90
10472;DHT22;5283;48.876;8.962;2023-11-22T03:03:52;3.10;99.90
10472;DHT22;5283;48.876;8.962;2023-11-22T03:06:19;3.00;99.90
10472;DHT22;5283;48.876;8.962;2023-11-22T03:08:46;3.00;99.90
10472;DHT22;5283;48.876;8.962;2023-11-22T03:11:14;3.00;99.90
10472;DHT22;5283;48.876;8.962;2023-11-22T03:13:41;3.00;99.90
10472;DHT22;5283;48.876;8.962;2023-11-22T03:16:08;3.00;99.90
10472;DHT22;5283;48.876;8.962;2023-11-22T03:18:35;3.00;99.90
10472;DHT22;5283;48.876;8.962;2023-11-22T03:21:02;3.00;99.90
10472;DHT22;5283;48.876;8.962;2023-11-22T03:23:29;3.00;99.90
10472;DHT22;5283;48.876;8.962;2023-11-22T03:25:56;3.00;99.90
10472;DHT22;5283;48.876;8.962;2023-11-22T03:28:22;3.00;99.90
10472;DHT22;5283;48.876;8.962;2023-11-22T03:30:49;3.00;99.90
10472;DHT22;5283;48.876;8.962;2023-11-22T03:33:16;3.00;99.90
10472;DHT22;5283;48.876;8.962;2023-11-22T03:35:43;3.00;99.90
10472;DHT22;5283;48.876;8.962;2023-11-22T03:38:10;3.00;99.90
10472;DHT22;5283;48.876;8.962;2023-11-22T03:40:36;3.00;99.90
10472;DHT22;5283;48.876;8.962;2023-11-22T03:43:03;3.10;99.90
10472;DHT22;5283;48.876;8.962;2023-11-22T03:45:30;3.20;99.90
10472;DHT22;5283;48.876;8.962;2023-11-22T03:47:57;3.30;99.90
10472;DHT22;5283;48.876;8.962;2023-11-22T03:50:23;3.20;99.90
10472;DHT22;5283;48.876;8.962;2023-11-22T03:52:50;3.20;99.90
10472;DHT22;5283;48.876;8.962;2023-11-22T03:55:17;3.20;99.90
10472;DHT22;5283;48.876;8.962;2023-11-22T03:57:43;3.20;99.90
10472;DHT22;5283;48.876;8.962;2023-11-22T04:00:11;3.10;99.90
10472;DHT22;5283;48.876;8.962;2023-11-22T04:02:38;3.20;99.90
10472;DHT22;5283;48.876;8.962;2023-11-22T04:05:06;3.10;99.90
10472;DHT22;5283;48.876;8.962;2023-11-22T04:07:34;3.10;99.90
10472;DHT22;5283;48.876;8.962;2023-11-22T04:10:01;3.10;99.90
10472;DHT22;5283;48.876;8.962;2023-11-22T04:12:27;3.10;99.90
10472;DHT22;5283;48.876;8.962;2023-11-22T04:14:54;3.10;99.90
10472;DHT22;5283;48.876;8.962;2023-11-22T04:17:21;3.10;99.90
10472;DHT22;5283;48.876;8.962;2023-11-22T04:19:48;3.10;99.90
10472;DHT22;5283;48.876;8.962;2023-11-22T04:22:15;3.00;99.90
10472;DHT22;5283;48.876;8.962;2023-11-22T04:24:41;3.00;99.90
10472;DHT22;5283;48.876;8.962;2023-11-22T04:27:09;2.90;99.90
10472;DHT22;5283;48.876;8.962;2023-11-22T04:29:36;2.80;99.90
10472;DHT22;5283;48.876;8.962;2023-11-22T04:32:03;2.80;99.90
10472;DHT22;5283;48.876;8.962;2023-11-22T04:34:30;2.80;99.90
10472;DHT22;5283;48.876;8.962;2023-11-22T04:36:57;2.80;99.90
10472;DHT22;5283;48.876;8.962;2023-11-22T04:39:23;2.80;99.90
10472;DHT22;5283;48.876;8.962;2023-11-22T04:41:50;2.80;99.90
10472;DHT22;5283;48.876;8.962;2023-11-22T04:44:17;2.80;99.90
10472;DHT22;5283;48.876;8.962;2023-11-22T04:46:44;2.80;99.90
10472;DHT22;5283;48.876;8.962;2023-11-22T04:49:10;2.80;99.90
10472;DHT22;5283;48.876;8.962;2023-11-22T04:51:37;2.80;99.90
10472;DHT22;5283;48.876;8.962;2023-11-22T04:54:04;2.80;99.90
10472;DHT22;5283;48.876;8.962;2023-11-22T04:56:31;2.80;99.90
10472;DHT22;5283;48.876;8.962;2023-11-22T04:58:58;2.80;99.90
10472;DHT22;5283;48.876;8.962;2023-11-22T05:01:27;2.80;99.90
10472;DHT22;5283;48.876;8.962;2023-11-22T05:03:58;2.80;99.90
10472;DHT22;5283;48.876;8.962;2023-11-22T05:06:25;2.90;99.90
10472;DHT22;5283;48.876;8.962;2023-11-22T05:08:53;2.80;99.90
10472;DHT22;5283;48.876;8.962;2023-11-22T05:11:21;2.80;99.90
10472;DHT22;5283;48.876;8.962;2023-11-22T05:13:49;2.80;99.90
10472;DHT22;5283;48.876;8.962;2023-11-22T05:16:17;2.80;99.90
10472;DHT22;5283;48.876;8.962;2023-11-22T05:18:44;2.80;99.90
10472;DHT22;5283;48.876;8.962;2023-11-22T05:21:11;2.70;99.90
10472;DHT22;5283;48.876;8.962;2023-11-22T05:23:38;2.70;99.90
10472;DHT22;5283;48.876;8.962;2023-11-22T05:26:05;2.80;99.90
10472;DHT22;5283;48.876;8.962;2023-11-22T05:28:31;2.80;99.90
10472;DHT22;5283;48.876;8.962;2023-11-22T05:30:58;2.80;99.90
10472;DHT22;5283;48.876;8.962;2023-11-22T05:33:25;2.80;99.90
10472;DHT22;5283;48.876;8.962;2023-11-22T05:35:52;2.80;99.90
10472;DHT22;5283;48.876;8.962;2023-11-22T05:38:18;2.70;99.90
10472;DHT22;5283;48.876;8.962;2023-11-22T05:40:45;2.70;99.90
10472;DHT22;5283;48.876;8.962;2023-11-22T05:43:12;2.70;99.90
10472;DHT22;5283;48.876;8.962;2023-11-22T05:45:39;2.70;99.90
10472;DHT22;5283;48.876;8.962;2023-11-22T05:48:06;2.70;99.90
10472;DHT22;5283;48.876;8.962;2023-11-22T05:50:32;2.70;99.90
10472;DHT22;5283;48.876;8.962;2023-11-22T05:52:59;2.70;99.90
10472;DHT22;5283;48.876;8.962;2023-11-22T05:55:26;2.70;99.90
10472;DHT22;5283;48.876;8.962;2023-11-22T05:57:54;2.70;99.90
10472;DHT22;5283;48.876;8.962;2023-11-22T06:00:21;2.70;99.90
10472;DHT22;5283;48.876;8.962;2023-11-22T06:02:47;2.80;99.90
10472;DHT22;5283;48.876;8.962;2023-11-22T06:05:14;2.80;99.90
10472;DHT22;5283;48.876;8.962;2023-11-22T06:07:41;2.80;99.90
10472;DHT22;5283;48.876;8.962;2023-11-22T06:10:08;2.70;99.90
10472;DHT22;5283;48.876;8.962;2023-11-22T06:12:35;2.80;99.90
10472;DHT22;5283;48.876;8.962;2023-11-22T06:15:02;2.80;99.90
10472;DHT22;5283;48.876;8.962;2023-11-22T06:17:30;2.90;99.90
10472;DHT22;5283;48.876;8.962;2023-11-22T06:19:57;2.80;99.90
10472;DHT22;5283;48.876;8.962;2023-11-22T06:22:23;2.80;99.90
10472;DHT22;5283;48.876;8.962;2023-11-22T06:24:50;2.80;99.90
10472;DHT22;5283;48.876;8.962;2023-11-22T06:27:17;2.80;99.90
10472;DHT22;5283;48.876;8.962;2023-11-22T06:29:44;2.80;99.90
10472;DHT22;5283;48.876;8.962;2023-11-22T06:32:11;2.80;99.90
10472;DHT22;5283;48.876;8.962;2023-11-22T06:34:38;2.90;99.90
10472;DHT22;5283;48.876;8.962;2023-11-22T06:37:06;2.90;99.90
10472;DHT22;5283;48.876;8.962;2023-11-22T06:39:34;2.90;99.90
10472;DHT22;5283;48.876;8.962;2023-11-22T06:42:02;2.90;99.90
10472;DHT22;5283;48.876;8.962;2023-11-22T06:44:28;2.90;99.90
10472;DHT22;5283;48.876;8.962;2023-11-22T06:46:55;2.80;99.90
10472;DHT22;5283;48.876;8.962;2023-11-22T06:49:23;2.70;99.90
10472;DHT22;5283;48.876;8.962;2023-11-22T06:51:50;2.70;99.90
10472;DHT22;5283;48.876;8.962;2023-11-22T06:54:19;2.70;99.90
10472;DHT22;5283;48.876;8.962;2023-11-22T06:56:46;2.60;99.90
10472;DHT22;5283;48.876;8.962;2023-11-22T06:59:14;2.60;99.90
10472;DHT22;5283;48.876;8.962;2023-11-22T07:01:41;2.50;99.90
10472;DHT22;5283;48.876;8.962;2023-11-22T07:04:07;2.50;99.90
10472;DHT22;5283;48.876;8.962;2023-11-22T07:06:34;2.50;99.90
10472;DHT22;5283;48.876;8.962;2023-11-22T07:09:04;2.50;99.90
10472;DHT22;5283;48.876;8.962;2023-11-22T07:11:31;2.50;99.90
10472;DHT22;5283;48.876;8.962;2023-11-22T07:13:58;2.50;99.90
10472;DHT22;5283;48.876;8.962;2023-11-22T07:16:25;2.40;99.90
10472;DHT22;5283;48.876;8.962;2023-11-22T07:18:51;2.30;99.90
10472;DHT22;5283;48.876;8.962;2023-11-22T07:21:19;2.30;99.90
10472;DHT22;5283;48.876;8.962;2023-11-22T07:23:47;2.30;99.90
10472;DHT22;5283;48.876;8.962;2023-11-22T07:26:15;2.30;99.90
10472;DHT22;5283;48.876;8.962;2023-11-22T07:28:42;2.20;99.90
10472;DHT22;5283;48.876;8.962;2023-11-22T07:31:09;2.20;99.90
10472;DHT22;5283;48.876;8.962;2023-11-22T07:33:36;2.20;99.90
10472;DHT22;5283;48.876;8.962;2023-11-22T07:36:02;2.20;99.90
10472;DHT22;5283;48.876;8.962;2023-11-22T07:38:31;2.10;99.90
10472;DHT22;5283;48.876;8.962;2023-11-22T07:40:59;2.00;99.90
10472;DHT22;5283;48.876;8.962;2023-11-22T07:43:26;2.00;99.90
10472;DHT22;5283;48.876;8.962;2023-11-22T07:45:53;1.90;99.90
10472;DHT22;5283;48.876;8.962;2023-11-22T07:48:20;2.00;99.90
10472;DHT22;5283;48.876;8.962;2023-11-22T07:50:47;2.00;99.90
10472;DHT22;5283;48.876;8.962;2023-11-22T07:53:15;2.00;99.90
10472;DHT22;5283;48.876;8.962;2023-11-22T07:55:44;2.00;99.90
10472;DHT22;5283;48.876;8.962;2023-11-22T07:58:10;2.10;99.90
10472;DHT22;5283;48.876;8.962;2023-11-22T08:00:37;2.10;99.90
10472;DHT22;5283;48.876;8.962;2023-11-22T08:03:04;2.10;99.90
10472;DHT22;5283;48.876;8.962;2023-11-22T08:05:33;2.00;99.90
10472;DHT22;5283;48.876;8.962;2023-11-22T08:08:03;2.00;99.90
10472;DHT22;5283;48.876;8.962;2023-11-22T08:10:35;2.10;99.90
10472;DHT22;5283;48.876;8.962;2023-11-22T08:13:02;2.10;99.90
10472;DHT22;5283;48.876;8.962;2023-11-22T08:15:30;2.10;99.90
10472;DHT22;5283;48.876;8.962;2023-11-22T08:17:59;2.20;99.90
10472;DHT22;5283;48.876;8.962;2023-11-22T08:20:29;2.10;99.90
10472;DHT22;5283;48.876;8.962;2023-11-22T08:22:57;2.20;99.90
10472;DHT22;5283;48.876;8.962;2023-11-22T08:25:24;2.20;99.90
10472;DHT22;5283;48.876;8.962;2023-11-22T08:27:50;2.20;99.90
10472;DHT22;5283;48.876;8.962;2023-11-22T08:30:18;2.20;99.90
10472;DHT22;5283;48.876;8.962;2023-11-22T08:32:45;2.30;99.90
10472;DHT22;5283;48.876;8.962;2023-11-22T08:35:17;2.20;99.90
10472;DHT22;5283;48.876;8.962;2023-11-22T08:37:44;2.30;99.90
10472;DHT22;5283;48.876;8.962;2023-11-22T08:40:11;2.30;99.90
10472;DHT22;5283;48.876;8.962;2023-11-22T08:42:40;2.30;99.90
10472;DHT22;5283;48.876;8.962;2023-11-22T08:45:08;2.30;99.90
10472;DHT22;5283;48.876;8.962;2023-11-22T08:47:35;2.30;99.90
10472;DHT22;5283;48.876;8.962;2023-11-22T08:50:03;2.30;99.90
10472;DHT22;5283;48.876;8.962;2023-11-22T08:52:30;2.30;99.90
10472;DHT22;5283;48.876;8.962;2023-11-22T08:54:59;2.40;99.90
10472;DHT22;5283;48.876;8.962;2023-11-22T08:57:27;2.40;99.90
10472;DHT22;5283;48.876;8.962;2023-11-22T08:59:53;2.40;99.90
10472;DHT22;5283;48.876;8.962;2023-11-22T09:02:21;2.60;99.90
10472;DHT22;5283;48.876;8.962;2023-11-22T09:04:49;2.70;99.90
10472;DHT22;5283;48.876;8.962;2023-11-22T09:07:15;2.70;99.90
10472;DHT22;5283;48.876;8.962;2023-11-22T09:09:42;2.70;99.90
10472;DHT22;5283;48.876;8.962;2023-11-22T09:12:09;2.50;99.90
10472;DHT22;5283;48.876;8.962;2023-11-22T09:14:42;2.50;99.90
10472;DHT22;5283;48.876;8.962;2023-11-22T09:17:09;2.70;99.90
10472;DHT22;5283;48.876;8.962;2023-11-22T09:19:36;2.70;99.90
10472;DHT22;5283;48.876;8.962;2023-11-22T09:22:04;2.70;99.90
10472;DHT22;5283;48.876;8.962;2023-11-22T09:24:33;2.60;99.90
10472;DHT22;5283;48.876;8.962;2023-11-22T09:27:00;2.70;99.90
10472;DHT22;5283;48.876;8.962;2023-11-22T09:29:29;2.70;99.90
10472;DHT22;5283;48.876;8.962;2023-11-22T09:31:55;2.70;99.90
10472;DHT22;5283;48.876;8.962;2023-11-22T09:34:23;2.70;99.90
10472;DHT22;5283;48.876;8.962;2023-11-22T09:36:50;2.80;99.90
10472;DHT22;5283;48.876;8.962;2023-11-22T09:39:17;2.90;99.90
10472;DHT22;5283;48.876;8.962;2023-11-22T09:41:48;2.90;99.90
10472;DHT22;5283;48.876;8.962;2023-11-22T09:44:18;3.00;99.90
10472;DHT22;5283;48.876;8.962;2023-11-22T09:46:48;3.20;99.90
10472;DHT22;5283;48.876;8.962;2023-11-22T09:49:20;3.20;99.90
10472;DHT22;5283;48.876;8.962;2023-11-22T09:51:48;3.30;99.90
10472;DHT22;5283;48.876;8.962;2023-11-22T09:54:18;3.30;99.90
10472;DHT22;5283;48.876;8.962;2023-11-22T09:56:47;3.30;99.90
10472;DHT22;5283;48.876;8.962;2023-11-22T09:59:18;3.40;99.90
10472;DHT22;5283;48.876;8.962;2023-11-22T10:01:49;3.40;99.90
10472;DHT22;5283;48.876;8.962;2023-11-22T10:04:15;3.40;99.90
10472;DHT22;5283;48.876;8.962;2023-11-22T10:06:42;3.10;99.90
10472;DHT22;5283;48.876;8.962;2023-11-22T10:09:12;3.00;99.90
10472;DHT22;5283;48.876;8.962;2023-11-22T10:11:40;3.10;99.90
10472;DHT22;5283;48.876;8.962;2023-11-22T10:14:09;3.10;99.90
10472;DHT22;5283;48.876;8.962;2023-11-22T10:16:36;3.20;99.90
10472;DHT22;5283;48.876;8.962;2023-11-22T10:19:04;3.30;99.90
10472;DHT22;5283;48.876;8.962;2023-11-22T10:21:34;3.40;99.90
10472;DHT22;5283;48.876;8.962;2023-11-22T10:24:02;3.50;99.90
10472;DHT22;5283;48.876;8.962;2023-11-22T10:26:30;3.50;99.90
10472;DHT22;5283;48.876;8.962;2023-11-22T10:28:57;3.50;99.90
10472;DHT22;5283;48.876;8.962;2023-11-22T10:31:25;3.50;99.90
10472;DHT22;5283;48.876;8.962;2023-11-22T10:33:53;3.60;99.90
10472;DHT22;5283;48.876;8.962;2023-11-22T10:36:21;3.40;99.90
10472;DHT22;5283;48.876;8.962;2023-11-22T10:38:48;3.30;99.90
10472;DHT22;5283;48.876;8.962;2023-11-22T10:41:20;3.30;99.90
10472;DHT22;5283;48.876;8.962;2023-11-22T10:43:47;3.40;99.90
10472;DHT22;5283;48.876;8.962;2023-11-22T10:46:15;3.40;99.90
10472;DHT22;5283;48.876;8.962;2023-11-22T10:48:43;3.50;99.90
10472;DHT22;5283;48.876;8.962;2023-11-22T10:51:13;3.50;99.90
10472;DHT22;5283;48.876;8.962;2023-11-22T10:53:48;3.50;99.90
10472;DHT22;5283;48.876;8.962;2023-11-22T10:56:16;3.60;99.90
10472;DHT22;5283;48.876;8.962;2023-11-22T10:58:49;3.50;99.90
10472;DHT22;5283;48.876;8.962;2023-11-22T11:01:16;3.50;99.90
10472;DHT22;5283;48.876;8.962;2023-11-22T11:03:56;3.40;99.90
10472;DHT22;5283;48.876;8.962;2023-11-22T11:06:28;3.40;99.90
10472;DHT22;5283;48.876;8.962;2023-11-22T11:09:01;3.40;99.90
10472;DHT22;5283;48.876;8.962;2023-11-22T11:11:33;3.40;99.90
10472;DHT22;5283;48.876;8.962;2023-11-22T11:14:01;3.30;99.90
10472;DHT22;5283;48.876;8.962;2023-11-22T11:16:30;3.30;99.90
10472;DHT22;5283;48.876;8.962;2023-11-22T11:19:02;3.30;99.90
10472;DHT22;5283;48.876;8.962;2023-11-22T11:21:29;3.30;99.90
10472;DHT22;5283;48.876;8.962;2023-11-22T11:23:56;3.40;99.90
10472;DHT22;5283;48.876;8.962;2023-11-22T11:26:32;3.50;99.90
10472;DHT22;5283;48.876;8.962;2023-11-22T11:28:59;3.60;99.90
10472;DHT22;5283;48.876;8.962;2023-11-22T11:31:31;3.60;99.90
10472;DHT22;5283;48.876;8.962;2023-11-22T11:34:06;3.40;99.90
10472;DHT22;5283;48.876;8.962;2023-11-22T11:36:37;3.30;99.90
10472;DHT22;5283;48.876;8.962;2023-11-22T11:39:08;3.40;99.90
10472;DHT22;5283;48.876;8.962;2023-11-22T11:41:41;3.50;99.90
10472;DHT22;5283;48.876;8.962;2023-11-22T11:44:08;3.60;99.90
10472;DHT22;5283;48.876;8.962;2023-11-22T11:46:39;3.60;99.90
10472;DHT22;5283;48.876;8.962;2023-11-22T11:49:07;3.60;99.90
10472;DHT22;5283;48.876;8.962;2023-11-22T11:51:34;3.50;99.90
10472;DHT22;5283;48.876;8.962;2023-11-22T11:54:01;3.50;99.90
10472;DHT22;5283;48.876;8.962;2023-11-22T11:56:28;3.60;99.90
10472;DHT22;5283;48.876;8.962;2023-11-22T11:58:57;3.50;99.90
10472;DHT22;5283;48.876;8.962;2023-11-22T12:01:30;3.60;99.90
10472;DHT22;5283;48.876;8.962;2023-11-22T12:04:01;3.50;99.90
10472;DHT22;5283;48.876;8.962;2023-11-22T12:06:29;3.60;99.90
10472;DHT22;5283;48.876;8.962;2023-11-22T12:08:55;3.70;99.90
10472;DHT22;5283;48.876;8.962;2023-11-22T12:11:22;3.70;99.90
10472;DHT22;5283;48.876;8.962;2023-11-22T12:13:50;3.70;99.90
10472;DHT22;5283;48.876;8.962;2023-11-22T12:16:18;3.70;99.90
10472;DHT22;5283;48.876;8.962;2023-11-22T12:18:47;3.80;99.90
10472;DHT22;5283;48.876;8.962;2023-11-22T12:21:17;3.60;99.90
10472;DHT22;5283;48.876;8.962;2023-11-22T12:23:46;3.40;99.90
10472;DHT22;5283;48.876;8.962;2023-11-22T12:26:15;3.50;99.90
10472;DHT22;5283;48.876;8.962;2023-11-22T12:28:46;3.70;99.90
10472;DHT22;5283;48.876;8.962;2023-11-22T12:31:14;3.70;99.90
10472;DHT22;5283;48.876;8.962;2023-11-22T12:33:42;3.70;99.90
10472;DHT22;5283;48.876;8.962;2023-11-22T12:36:10;3.90;99.90
10472;DHT22;5283;48.876;8.962;2023-11-22T12:38:37;3.80;99.90
10472;DHT22;5283;48.876;8.962;2023-11-22T12:41:05;3.60;99.90
10472;DHT22;5283;48.876;8.962;2023-11-22T12:43:34;3.50;99.90
10472;DHT22;5283;48.876;8.962;2023-11-22T12:46:04;3.50;99.90
10472;DHT22;5283;48.876;8.962;2023-11-22T12:48:33;3.40;99.90
10472;DHT22;5283;48.876;8.962;2023-11-22T12:51:00;3.40;99.90
10472;DHT22;5283;48.876;8.962;2023-11-22T12:53:27;3.60;99.90
10472;DHT22;5283;48.876;8.962;2023-11-22T12:55:55;3.70;99.90
10472;DHT22;5283;48.876;8.962;2023-11-22T12:58:23;3.70;99.90
10472;DHT22;5283;48.876;8.962;2023-11-22T13:00:52;3.80;99.90
10472;DHT22;5283;48.876;8.962;2023-11-22T13:03:24;3.80;99.90
10472;DHT22;5283;48.876;8.962;2023-11-22T13:05:55;3.80;99.90
10472;DHT22;5283;48.876;8.962;2023-11-22T13:08:22;3.80;99.90
10472;DHT22;5283;48.876;8.962;2023-11-22T13:10:50;3.70;99.90
10472;DHT22;5283;48.876;8.962;2023-11-22T13:13:24;3.60;99.90
10472;DHT22;5283;48.876;8.962;2023-11-22T13:15:54;3.50;99.90
10472;DHT22;5283;48.876;8.962;2023-11-22T13:18:21;3.60;99.90
10472;DHT22;5283;48.876;8.962;2023-11-22T13:20:48;3.60;99.90
10472;DHT22;5283;48.876;8.962;2023-11-22T13:23:16;3.70;99.90
10472;DHT22;5283;48.876;8.962;2023-11-22T13:25:44;3.50;99.90
10472;DHT22;5283;48.876;8.962;2023-11-22T13:28:14;3.60;99.90
10472;DHT22;5283;48.876;8.962;2023-11-22T13:30:41;3.60;99.90
10472;DHT22;5283;48.876;8.962;2023-11-22T13:33:08;3.40;99.90
10472;DHT22;5283;48.876;8.962;2023-11-22T13:35:34;3.40;99.90
10472;DHT22;5283;48.876;8.962;2023-11-22T13:38:04;3.30;99.90
10472;DHT22;5283;48.876;8.962;2023-11-22T13:40:37;3.30;99.90
10472;DHT22;5283;48.876;8.962;2023-11-22T13:43:06;3.30;99.90
10472;DHT22;5283;48.876;8.962;2023-11-22T13:45:35;3.30;99.90
10472;DHT22;5283;48.876;8.962;2023-11-22T13:48:04;3.30;99.90
10472;DHT22;5283;48.876;8.962;2023-11-22T13:50:33;3.20;99.90
10472;DHT22;5283;48.876;8.962;2023-11-22T13:53:00;3.30;99.90
10472;DHT22;5283;48.876;8.962;2023-11-22T13:55:27;3.40;99.90
10472;DHT22;5283;48.876;8.962;2023-11-22T13:57:59;3.40;99.90
10472;DHT22;5283;48.876;8.962;2023-11-22T14:00:29;3.40;99.90
10472;DHT22;5283;48.876;8.962;2023-11-22T14:03:00;3.40;99.90
10472;DHT22;5283;48.876;8.962;2023-11-22T14:05:33;3.50;99.90
10472;DHT22;5283;48.876;8.962;2023-11-22T14:08:00;3.50;99.90
10472;DHT22;5283;48.876;8.962;2023-11-22T14:10:27;3.50;99.90
10472;DHT22;5283;48.876;8.962;2023-11-22T14:12:55;3.50;99.90
10472;DHT22;5283;48.876;8.962;2023-11-22T14:15:27;3.50;99.90
10472;DHT22;5283;48.876;8.962;2023-11-22T14:17:57;3.60;99.90
10472;DHT22;5283;48.876;8.962;2023-11-22T14:20:23;3.50;99.90
10472;DHT22;5283;48.876;8.962;2023-11-22T14:22:51;3.50;99.90
10472;DHT22;5283;48.876;8.962;2023-11-22T14:25:18;3.50;99.90
10472;DHT22;5283;48.876;8.962;2023-11-22T14:27:46;3.50;99.90
10472;DHT22;5283;48.876;8.962;2023-11-22T14:30:14;3.50;99.90
10472;DHT22;5283;48.876;8.962;2023-11-22T14:32:43;3.40;99.90
10472;DHT22;5283;48.876;8.962;2023-11-22T14:35:11;3.50;99.90
10472;DHT22;5283;48.876;8.962;2023-11-22T14:37:39;3.40;99.90
10472;DHT22;5283;48.876;8.962;2023-11-22T14:40:09;3.40;99.90
10472;DHT22;5283;48.876;8.962;2023-11-22T14:42:41;3.40;99.90
10472;DHT22;5283;48.876;8.962;2023-11-22T14:45:11;3.40;99.90
10472;DHT22;5283;48.876;8.962;2023-11-22T14:47:39;3.40;99.90
10472;DHT22;5283;48.876;8.962;2023-11-22T14:50:08;3.40;99.90
10472;DHT22;5283;48.876;8.962;2023-11-22T14:52:38;3.40;99.90
10472;DHT22;5283;48.876;8.962;2023-11-22T14:55:05;3.30;99.90
10472;DHT22;5283;48.876;8.962;2023-11-22T14:57:33;3.30;99.90
10472;DHT22;5283;48.876;8.962;2023-11-22T14:59:59;3.30;99.90
10472;DHT22;5283;48.876;8.962;2023-11-22T15:02:26;3.20;99.90
10472;DHT22;5283;48.876;8.962;2023-11-22T15:04:53;3.20;99.90
10472;DHT22;5283;48.876;8.962;2023-11-22T15:07:20;3.20;99.90
10472;DHT22;5283;48.876;8.962;2023-11-22T15:09:46;3.20;99.90
10472;DHT22;5283;48.876;8.962;2023-11-22T15:12:14;3.20;99.90
10472;DHT22;5283;48.876;8.962;2023-11-22T15:14:40;3.20;99.90
10472;DHT22;5283;48.876;8.962;2023-11-22T15:17:08;3.10;99.90
10472;DHT22;5283;48.876;8.962;2023-11-22T15:19:34;3.10;99.90
10472;DHT22;5283;48.876;8.962;2023-11-22T15:22:04;3.00;99.90
10472;DHT22;5283;48.876;8.962;2023-11-22T15:24:32;2.80;99.90
10472;DHT22;5283;48.876;8.962;2023-11-22T15:26:59;2.80;99.90
10472;DHT22;5283;48.876;8.962;2023-11-22T15:29:26;2.70;99.90
10472;DHT22;5283;48.876;8.962;2023-11-22T15:31:52;2.70;99.90
10472;DHT22;5283;48.876;8.962;2023-11-22T15:34:20;2.60;99.90
10472;DHT22;5283;48.876;8.962;2023-11-22T15:36:48;2.60;99.90
10472;DHT22;5283;48.876;8.962;2023-11-22T15:39:15;2.50;99.90
10472;DHT22;5283;48.876;8.962;2023-11-22T15:41:44;2.50;99.90
10472;DHT22;5283;48.876;8.962;2023-11-22T15:44:11;2.40;99.90
10472;DHT22;5283;48.876;8.962;2023-11-22T15:46:40;2.30;99.90
10472;DHT22;5283;48.876;8.962;2023-11-22T15:49:10;2.30;99.90
10472;DHT22;5283;48.876;8.962;2023-11-22T15:51:36;2.30;99.90
10472;DHT22;5283;48.876;8.962;2023-11-22T15:54:03;2.20;99.90
10472;DHT22;5283;48.876;8.962;2023-11-22T15:56:30;2.30;99.90
10472;DHT22;5283;48.876;8.962;2023-11-22T15:58:57;2.30;99.90
10472;DHT22;5283;48.876;8.962;2023-11-22T16:01:28;2.30;99.90
10472;DHT22;5283;48.876;8.962;2023-11-22T16:03:55;2.30;99.90
10472;DHT22;5283;48.876;8.962;2023-11-22T16:06:22;2.30;99.90